Time;durP1;ratioP1;P1;durP2;ratioP2;P2;SDS_P1;SDS_P2;PMS_P1;PMS_P2;Temp;Humidity;BMP_temperature;BMP_pressure;BME280_temperature;BME280_humidity;BME280_pressure;Samples;Min_cycle;Max_cycle;Signal;HPM_P1;HPM_P2
2022/07/30 00:01:42;;;;;;;6.50;2.70;;;;;;;;;;5091728;28;20199;-77
2022/07/30 00:04:09;;;;;;;6.03;2.30;;;;;;;;;;5091447;28;20268;-77
2022/07/30 00:06:38;;;;;;;5.57;3.07;;;;;;;;;;5091599;28;20200;-77
2022/07/30 00:09:23;;;;;;;6.40;2.77;;;;;;;;;;5076452;28;20268;-77
2022/07/30 00:11:50;;;;;;;5.40;2.70;;;;;;;;;;5091664;28;20601;-77
2022/07/30 00:14:16;;;;;;;3.77;2.60;;;;;;;;;;5091413;28;20611;-77
2022/07/30 00:16:46;;;;;;;6.37;3.07;;;;;;;;;;5091496;28;20204;-77
2022/07/30 00:19:13;;;;;;;4.97;2.40;;;;;;;;;;5091164;28;20220;-76
2022/07/30 00:21:42;;;;;;;5.63;2.73;;;;;;;;;;5091540;28;20209;-77
2022/07/30 00:24:09;;;;;;;8.57;3.47;;;;;;;;;;5091167;28;20213;-77
2022/07/30 00:26:38;;;;;;;6.63;3.87;;;;;;;;;;5105404;28;20188;-77
2022/07/30 00:29:04;;;;;;;6.77;3.40;;;;;;;;;;5093550;28;20547;-77
2022/07/30 00:31:50;;;;;;;7.17;3.87;;;;;;;;;;5096305;28;20180;-77
2022/07/30 00:34:17;;;;;;;6.60;3.90;;;;;;;;;;5111410;28;20607;-77
2022/07/30 00:37:01;;;;;;;7.13;3.57;;;;;;;;;;5111466;28;20173;-77
2022/07/30 00:39:29;;;;;;;6.40;4.10;;;;;;;;;;5110974;28;20216;-77
2022/07/30 00:41:57;;;;;;;6.40;3.67;;;;;;;;;;5092665;28;20210;-76
2022/07/30 00:44:26;;;;;;;5.87;3.80;;;;;;;;;;5092784;28;20663;-77
2022/07/30 00:46:52;;;;;;;8.97;3.53;;;;;;;;;;5076386;28;20711;-76
2022/07/30 00:49:19;;;;;;;6.43;3.70;;;;;;;;;;5093140;28;20201;-77
2022/07/30 00:51:48;;;;;;;5.73;3.23;;;;;;;;;;5093596;28;20181;-77
2022/07/30 00:54:15;;;;;;;5.37;3.23;;;;;;;;;;5075813;28;20200;-76
2022/07/30 00:56:42;;;;;;;6.00;2.90;;;;;;;;;;5110725;28;20703;-77
2022/07/30 00:59:12;;;;;;;7.67;3.20;;;;;;;;;;5111280;28;20658;-77
2022/07/30 01:01:39;;;;;;;7.40;2.90;;;;;;;;;;5111077;28;20180;-77
2022/07/30 01:04:10;;;;;;;6.20;2.90;;;;;;;;;;5092615;28;20200;-77
2022/07/30 01:06:38;;;;;;;5.60;2.60;;;;;;;;;;5110656;28;20547;-77
2022/07/30 01:09:05;;;;;;;3.80;2.40;;;;;;;;;;5092369;28;20686;-77
2022/07/30 01:11:34;;;;;;;4.33;2.23;;;;;;;;;;5110763;28;20208;-77
2022/07/30 01:14:01;;;;;;;5.17;2.80;;;;;;;;;;5092925;28;20216;-76
2022/07/30 01:16:29;;;;;;;4.87;2.70;;;;;;;;;;5092595;28;20230;-76
2022/07/30 01:21:42;;;;;;;3.50;2.03;;;;;;;;;;5092367;28;20256;-76
2022/07/30 01:24:36;;;;;;;5.53;2.50;;;;;;;;;;5075601;28;20192;-76
2022/07/30 01:27:02;;;;;;;7.03;2.13;;;;;;;;;;5069834;28;20719;-77
2022/07/30 01:29:32;;;;;;;4.53;2.53;;;;;;;;;;5072635;28;20201;-76
2022/07/30 01:31:59;;;;;;;4.53;2.50;;;;;;;;;;5072026;28;20269;-76
2022/07/30 01:34:30;;;;;;;3.67;2.20;;;;;;;;;;5071825;28;20664;-76
2022/07/30 01:36:57;;;;;;;3.70;2.17;;;;;;;;;;5089708;28;20664;-76
2022/07/30 01:39:42;;;;;;;3.40;2.40;;;;;;;;;;5060680;28;20229;-76
2022/07/30 01:42:10;;;;;;;3.57;1.97;;;;;;;;;;5072167;28;20181;-76
2022/07/30 01:44:37;;;;;;;5.07;2.30;;;;;;;;;;5055197;28;20194;-76
2022/07/30 01:47:04;;;;;;;3.33;2.27;;;;;;;;;;5055163;28;20217;-76
2022/07/30 01:49:33;;;;;;;3.10;2.20;;;;;;;;;;5071836;28;20212;-76
2022/07/30 01:52:01;;;;;;;4.63;2.43;;;;;;;;;;5054866;28;20197;-76
2022/07/30 01:54:28;;;;;;;4.07;2.20;;;;;;;;;;5055508;28;20549;-76
2022/07/30 01:56:55;;;;;;;4.03;2.17;;;;;;;;;;5054581;28;20225;-76
2022/07/30 01:59:22;;;;;;;4.57;2.10;;;;;;;;;;5071659;28;20290;-77
2022/07/30 02:01:51;;;;;;;3.43;2.13;;;;;;;;;;5039005;28;20267;-76
2022/07/30 02:04:18;;;;;;;3.27;2.30;;;;;;;;;;5055127;28;20197;-76
2022/07/30 02:06:46;;;;;;;3.13;2.20;;;;;;;;;;5071764;28;20196;-76
2022/07/30 02:09:36;;;;;;;5.10;2.33;;;;;;;;;;5071712;28;20200;-76
2022/07/30 02:12:28;;;;;;;2.70;1.97;;;;;;;;;;5071587;28;20211;-76
2022/07/30 02:15:13;;;;;;;7.30;2.67;;;;;;;;;;5059965;28;20173;-77
2022/07/30 02:17:42;;;;;;;5.80;2.40;;;;;;;;;;5071156;28;20205;-76
2022/07/30 02:20:11;;;;;;;3.83;2.20;;;;;;;;;;5055340;28;20205;-76
2022/07/30 02:22:40;;;;;;;4.40;2.30;;;;;;;;;;5071521;28;20189;-76
2022/07/30 02:25:07;;;;;;;4.67;2.17;;;;;;;;;;5073197;28;20181;-76
2022/07/30 02:27:34;;;;;;;3.20;2.00;;;;;;;;;;5091755;28;20189;-77
2022/07/30 02:30:04;;;;;;;3.17;1.80;;;;;;;;;;5109744;28;20184;-77
2022/07/30 02:32:32;;;;;;;2.23;1.47;;;;;;;;;;5091859;28;20259;-76
2022/07/30 02:34:59;;;;;;;2.57;1.90;;;;;;;;;;5075035;28;20200;-76
2022/07/30 02:37:26;;;;;;;2.63;1.70;;;;;;;;;;5075043;28;20196;-77
2022/07/30 02:40:11;;;;;;;3.37;1.60;;;;;;;;;;5077087;28;20285;-76
2022/07/30 02:42:38;;;;;;;2.53;1.60;;;;;;;;;;5091504;28;20664;-76
2022/07/30 02:45:05;;;;;;;2.70;1.97;;;;;;;;;;5075191;28;20196;-76
2022/07/30 02:47:32;;;;;;;2.87;1.40;;;;;;;;;;5075062;28;20192;-77
2022/07/30 02:50:01;;;;;;;3.83;1.60;;;;;;;;;;5110361;28;20609;-76
2022/07/30 02:52:28;;;;;;;3.97;1.90;;;;;;;;;;5092172;28;20266;-77
2022/07/30 02:54:55;;;;;;;4.03;1.63;;;;;;;;;;5074729;28;20193;-77
2022/07/30 02:57:23;;;;;;;2.60;1.60;;;;;;;;;;5108725;28;20733;-77
2022/07/30 02:59:50;;;;;;;2.23;1.57;;;;;;;;;;5091466;28;20621;-77
2022/07/30 03:02:17;;;;;;;4.10;1.67;;;;;;;;;;5074552;28;20202;-77
2022/07/30 03:04:55;;;;;;;5.47;1.70;;;;;;;;;;5094008;28;20207;-76
2022/07/30 03:07:24;;;;;;;3.60;1.70;;;;;;;;;;5079221;28;20188;-76
2022/07/30 03:09:50;;;;;;;3.23;1.60;;;;;;;;;;5078414;28;20607;-77
2022/07/30 03:12:18;;;;;;;6.47;2.13;;;;;;;;;;5078466;28;20660;-77
2022/07/30 03:14:45;;;;;;;5.53;1.70;;;;;;;;;;5078096;28;20203;-77
2022/07/30 03:17:13;;;;;;;2.33;1.50;;;;;;;;;;5078311;28;20215;-77
2022/07/30 03:19:42;;;;;;;3.43;1.60;;;;;;;;;;5113328;28;20215;-77
2022/07/30 03:22:09;;;;;;;3.83;1.53;;;;;;;;;;5078376;28;20192;-77
2022/07/30 03:24:53;;;;;;;5.77;1.70;;;;;;;;;;5113223;28;20169;-76
2022/07/30 03:27:20;;;;;;;3.63;1.97;;;;;;;;;;5074491;28;20247;-77
2022/07/30 03:29:47;;;;;;;2.77;1.60;;;;;;;;;;5074788;28;20684;-76
2022/07/30 03:32:14;;;;;;;3.70;2.00;;;;;;;;;;5074852;28;20197;-77
2022/07/30 03:34:41;;;;;;;2.50;1.70;;;;;;;;;;5074502;28;20216;-77
2022/07/30 03:37:10;;;;;;;3.63;1.70;;;;;;;;;;5058616;28;20622;-76
2022/07/30 03:39:37;;;;;;;3.27;1.47;;;;;;;;;;5057575;28;20320;-77
2022/07/30 03:42:05;;;;;;;2.83;1.40;;;;;;;;;;5057751;28;20223;-77
2022/07/30 03:44:33;;;;;;;2.70;1.60;;;;;;;;;;5057817;28;20205;-76
2022/07/30 03:47:19;;;;;;;4.13;1.87;;;;;;;;;;5059658;28;20264;-77
2022/07/30 03:49:47;;;;;;;2.87;1.50;;;;;;;;;;5058023;28;20652;-77
2022/07/30 03:52:15;;;;;;;2.80;1.70;;;;;;;;;;5074035;28;20293;-77
2022/07/30 03:54:42;;;;;;;2.87;1.77;;;;;;;;;;5057730;28;20374;-77
2022/07/30 03:57:35;;;;;;;1.87;1.50;;;;;;;;;;5039443;28;20260;-77
2022/07/30 04:00:12;;;;;;;3.23;1.73;;;;;;;;;;5057994;28;20612;-77
2022/07/30 04:02:42;;;;;;;4.63;1.53;;;;;;;;;;5071624;28;20633;-77
2022/07/30 04:05:44;;;;;;;16.33;2.33;;;;;;;;;;5074121;28;20181;-77
2022/07/30 04:08:12;;;;;;;26.67;3.83;;;;;;;;;;5092145;28;20218;-77
2022/07/30 04:10:41;;;;;;;20.07;3.30;;;;;;;;;;5073857;28;20193;-77
2022/07/30 04:13:26;;;;;;;6.67;1.97;;;;;;;;;;5091632;28;20204;-77
2022/07/30 04:15:54;;;;;;;19.07;3.03;;;;;;;;;;5073645;28;20201;-77
2022/07/30 04:18:46;;;;;;;16.30;3.20;;;;;;;;;;5059821;28;20197;-77
2022/07/30 04:21:31;;;;;;;15.70;2.60;;;;;;;;;;5059534;28;20172;-77
2022/07/30 04:23:57;;;;;;;7.97;2.63;;;;;;;;;;5091750;28;20205;-77
2022/07/30 04:26:31;;;;;;;7.37;2.77;;;;;;;;;;5086712;28;20288;-77
2022/07/30 04:28:59;;;;;;;8.27;2.20;;;;;;;;;;5076894;28;20196;-77
2022/07/30 04:31:26;;;;;;;11.60;2.60;;;;;;;;;;5076570;28;20234;-77
2022/07/30 04:33:58;;;;;;;8.07;2.30;;;;;;;;;;5077230;28;20201;-77
2022/07/30 04:36:37;;;;;;;6.67;2.10;;;;;;;;;;5093314;28;20616;-77
2022/07/30 04:39:05;;;;;;;6.23;2.20;;;;;;;;;;5076322;28;20209;-76
2022/07/30 04:41:32;;;;;;;3.83;1.80;;;;;;;;;;5093787;28;20260;-77
2022/07/30 04:44:33;;;;;;;4.67;1.60;;;;;;;;;;5098804;28;20192;-77
2022/07/30 04:47:19;;;;;;;4.67;1.70;;;;;;;;;;5096193;28;20663;-77
2022/07/30 04:49:59;;;;;;;4.07;1.80;;;;;;;;;;5093484;28;20194;-77
2022/07/30 04:52:26;;;;;;;6.20;2.10;;;;;;;;;;5076552;28;20205;-77
2022/07/30 04:55:15;;;;;;;2.27;1.60;;;;;;;;;;5079252;28;20176;-77
2022/07/30 04:57:45;;;;;;;2.90;1.70;;;;;;;;;;5076268;28;20251;-77
2022/07/30 05:00:12;;;;;;;2.20;1.60;;;;;;;;;;5093182;28;20213;-77
2022/07/30 05:02:40;;;;;;;2.27;1.50;;;;;;;;;;5076250;28;20211;-77
2022/07/30 05:05:07;;;;;;;3.43;1.60;;;;;;;;;;5093498;28;20189;-77
2022/07/30 05:07:34;;;;;;;4.23;1.67;;;;;;;;;;5093083;28;20196;-77
2022/07/30 05:10:01;;;;;;;5.50;1.50;;;;;;;;;;5076099;28;20193;-77
2022/07/30 05:12:32;;;;;;;3.57;1.53;;;;;;;;;;5092911;28;20193;-77
2022/07/30 05:14:59;;;;;;;2.60;0.90;;;;;;;;;;5075963;28;20197;-77
2022/07/30 05:17:26;;;;;;;1.43;1.00;;;;;;;;;;5110804;28;20189;-77
2022/07/30 05:19:54;;;;;;;3.67;1.10;;;;;;;;;;5075959;28;20212;-77
2022/07/30 05:22:24;;;;;;;3.17;1.00;;;;;;;;;;5075938;28;20196;-77
2022/07/30 05:24:51;;;;;;;0.80;0.70;;;;;;;;;;5092572;28;20552;-77
2022/07/30 05:27:19;;;;;;;0.93;0.80;;;;;;;;;;5071895;28;20189;-77
2022/07/30 05:29:46;;;;;;;1.00;0.80;;;;;;;;;;5055964;28;20197;-76
2022/07/30 05:32:17;;;;;;;1.20;0.70;;;;;;;;;;5055969;28;20205;-75
2022/07/30 05:34:45;;;;;;;1.83;0.87;;;;;;;;;;5055987;28;20308;-77
2022/07/30 05:37:17;;;;;;;1.47;0.80;;;;;;;;;;5072005;28;20197;-77
2022/07/30 05:39:44;;;;;;;1.37;0.60;;;;;;;;;;5055630;28;20209;-76
2022/07/30 05:42:41;;;;;;;1.57;0.80;;;;;;;;;;5090433;28;20192;-76
2022/07/30 05:45:08;;;;;;;1.77;0.70;;;;;;;;;;5071974;28;20224;-76
2022/07/30 05:47:37;;;;;;;2.17;0.67;;;;;;;;;;5039106;28;20280;-76
2022/07/30 05:50:04;;;;;;;2.43;0.83;;;;;;;;;;5072204;28;20255;-76
2022/07/30 05:52:31;;;;;;;0.80;0.50;;;;;;;;;;5071959;28;20193;-76
2022/07/30 05:55:07;;;;;;;1.97;0.70;;;;;;;;;;5071951;28;20201;-76
2022/07/30 05:57:50;;;;;;;1.77;0.77;;;;;;;;;;5057420;28;20256;-75
2022/07/30 06:00:16;;;;;;;2.57;0.77;;;;;;;;;;5071348;28;20308;-76
2022/07/30 06:02:48;;;;;;;1.20;0.50;;;;;;;;;;5072987;28;20201;-77
2022/07/30 06:05:24;;;;;;;1.13;0.60;;;;;;;;;;5089778;28;20200;-76
2022/07/30 06:08:08;;;;;;;1.77;0.60;;;;;;;;;;5072028;28;20530;-76
2022/07/30 06:10:38;;;;;;;1.23;0.70;;;;;;;;;;5071821;28;20228;-76
2022/07/30 06:13:09;;;;;;;1.67;0.70;;;;;;;;;;5071966;28;20197;-76
2022/07/30 06:15:36;;;;;;;0.83;0.73;;;;;;;;;;5071918;28;20668;-76
2022/07/30 06:18:03;;;;;;;0.70;0.70;;;;;;;;;;5055343;28;20287;-76
2022/07/30 06:20:40;;;;;;;2.90;1.43;;;;;;;;;;5071690;28;20234;-76
2022/07/30 06:23:14;;;;;;;3.53;1.30;;;;;;;;;;5071509;28;20264;-76
2022/07/30 06:26:13;;;;;;;1.87;0.90;;;;;;;;;;5046449;28;20552;-76
2022/07/30 06:28:40;;;;;;;2.17;0.90;;;;;;;;;;5055382;28;20269;-76
2022/07/30 06:31:18;;;;;;;2.90;0.90;;;;;;;;;;5056351;28;20644;-76
2022/07/30 06:33:45;;;;;;;2.77;1.00;;;;;;;;;;5071186;28;20272;-76
2022/07/30 06:36:13;;;;;;;1.07;0.70;;;;;;;;;;5055174;28;20201;-76
2022/07/30 06:38:58;;;;;;;2.57;1.03;;;;;;;;;;5072777;28;20203;-76
2022/07/30 06:41:45;;;;;;;2.57;1.10;;;;;;;;;;5075355;28;20280;-76
2022/07/30 06:44:13;;;;;;;2.90;1.10;;;;;;;;;;5075203;28;20243;-76
2022/07/30 06:47:09;;;;;;;4.53;1.00;;;;;;;;;;5075476;28;20552;-76
2022/07/30 06:49:37;;;;;;;0.87;0.77;;;;;;;;;;5074910;28;20193;-77
2022/07/30 06:52:25;;;;;;;2.57;1.00;;;;;;;;;;5075052;28;20185;-76
2022/07/30 06:54:53;;;;;;;2.00;1.00;;;;;;;;;;5042661;28;20224;-76
2022/07/30 06:57:33;;;;;;;1.70;0.73;;;;;;;;;;5075101;28;20727;-76
2022/07/30 07:00:26;;;;;;;0.70;0.60;;;;;;;;;;5074773;28;20558;-76
2022/07/30 07:02:54;;;;;;;0.90;0.80;;;;;;;;;;5058499;28;20820;-77
2022/07/30 07:05:33;;;;;;;1.70;0.80;;;;;;;;;;5093064;28;20219;-77
2022/07/30 07:08:00;;;;;;;0.90;0.80;;;;;;;;;;5074960;28;20193;-77
2022/07/30 07:10:32;;;;;;;1.13;0.67;;;;;;;;;;5058990;28;20208;-74
2022/07/30 07:13:12;;;;;;;1.40;0.80;;;;;;;;;;5074648;28;20280;-76
2022/07/30 07:15:39;;;;;;;1.73;0.73;;;;;;;;;;5092920;28;20186;-76
2022/07/30 07:18:11;;;;;;;0.80;0.60;;;;;;;;;;5074495;28;20204;-76
2022/07/30 07:20:45;;;;;;;1.67;0.80;;;;;;;;;;5058674;28;20584;-76
2022/07/30 07:23:12;;;;;;;1.60;0.70;;;;;;;;;;5075382;28;20206;-77
2022/07/30 07:25:40;;;;;;;0.93;0.60;;;;;;;;;;5080812;28;20182;-77
2022/07/30 07:28:08;;;;;;;1.40;0.70;;;;;;;;;;5094390;28;20232;-77
2022/07/30 07:30:42;;;;;;;2.70;0.70;;;;;;;;;;5078923;28;20627;-76
2022/07/30 07:33:13;;;;;;;2.60;0.70;;;;;;;;;;5094583;28;20425;-78
2022/07/30 07:35:44;;;;;;;1.87;0.57;;;;;;;;;;5078342;28;20201;-76
2022/07/30 07:38:30;;;;;;;2.47;0.80;;;;;;;;;;5094604;28;20194;-77
2022/07/30 07:40:57;;;;;;;1.53;0.70;;;;;;;;;;5094313;28;20270;-77
2022/07/30 07:43:26;;;;;;;2.50;0.80;;;;;;;;;;5094515;28;20887;-77
2022/07/30 07:45:56;;;;;;;2.07;0.67;;;;;;;;;;5094459;28;20216;-77
2022/07/30 07:48:25;;;;;;;1.63;0.70;;;;;;;;;;5077741;28;20199;-77
2022/07/30 07:51:05;;;;;;;1.63;0.90;;;;;;;;;;5078614;28;20193;-77
2022/07/30 07:53:37;;;;;;;2.77;0.90;;;;;;;;;;5095126;28;20268;-77
2022/07/30 07:56:07;;;;;;;1.20;0.80;;;;;;;;;;5077323;28;20228;-77
2022/07/30 07:58:34;;;;;;;1.50;0.70;;;;;;;;;;5077596;28;20201;-77
2022/07/30 08:01:03;;;;;;;1.13;0.70;;;;;;;;;;5077216;28;20595;-77
2022/07/30 08:04:06;;;;;;;0.70;0.57;;;;;;;;;;5029422;28;20192;-77
2022/07/30 08:07:05;;;;;;;1.93;0.67;;;;;;;;;;5027224;28;20234;-77
2022/07/30 08:09:58;;;;;;;3.30;0.70;;;;;;;;;;5107994;28;20285;-77
2022/07/30 08:12:44;;;;;;;2.90;0.60;;;;;;;;;;5079973;28;20659;-77
2022/07/30 08:15:30;;;;;;;1.37;0.63;;;;;;;;;;5112251;28;20208;-77
2022/07/30 08:18:17;;;;;;;3.30;0.67;;;;;;;;;;5111288;28;20237;-77
2022/07/30 08:20:52;;;;;;;3.03;0.70;;;;;;;;;;5093992;28;20306;-77
2022/07/30 08:23:24;;;;;;;2.40;0.63;;;;;;;;;;5094080;28;20542;-77
2022/07/30 08:25:52;;;;;;;2.33;0.77;;;;;;;;;;5074016;28;20221;-77
2022/07/30 08:28:19;;;;;;;1.60;0.60;;;;;;;;;;5090173;28;20273;-77
2022/07/30 08:31:03;;;;;;;0.97;0.33;;;;;;;;;;5073413;28;20220;-77
2022/07/30 08:33:30;;;;;;;2.03;0.80;;;;;;;;;;5073320;28;20253;-77
2022/07/30 08:35:57;;;;;;;1.47;0.60;;;;;;;;;;5073351;28;20202;-77
2022/07/30 08:38:31;;;;;;;3.53;0.60;;;;;;;;;;5073392;28;20197;-77
2022/07/30 08:40:58;;;;;;;0.90;0.40;;;;;;;;;;5089952;28;20240;-77
2022/07/30 08:43:26;;;;;;;1.83;0.50;;;;;;;;;;5073281;28;20284;-77
2022/07/30 08:45:56;;;;;;;2.17;0.60;;;;;;;;;;5089759;28;20220;-76
2022/07/30 08:48:37;;;;;;;2.10;0.70;;;;;;;;;;5089649;28;20610;-76
2022/07/30 08:51:05;;;;;;;1.27;0.50;;;;;;;;;;5089608;28;20201;-76
2022/07/30 08:53:32;;;;;;;2.40;0.57;;;;;;;;;;5089828;28;20190;-76
2022/07/30 08:55:59;;;;;;;1.70;0.50;;;;;;;;;;5072805;28;20701;-75
2022/07/30 08:58:29;;;;;;;1.50;0.50;;;;;;;;;;5072025;28;20221;-77
2022/07/30 09:00:56;;;;;;;2.77;0.60;;;;;;;;;;5052139;28;20716;-76
2022/07/30 09:03:27;;;;;;;1.23;0.60;;;;;;;;;;5053351;28;20198;-76
2022/07/30 09:05:57;;;;;;;1.30;0.50;;;;;;;;;;5020574;28;20205;-76
2022/07/30 09:08:26;;;;;;;1.83;0.60;;;;;;;;;;5053164;28;20613;-76
2022/07/30 09:10:54;;;;;;;1.80;0.60;;;;;;;;;;5053155;28;20197;-76
2022/07/30 09:13:24;;;;;;;2.37;0.70;;;;;;;;;;5052661;28;20729;-76
2022/07/30 09:15:51;;;;;;;1.00;0.80;;;;;;;;;;5052647;28;20197;-76
2022/07/30 09:18:28;;;;;;;2.30;0.53;;;;;;;;;;5068820;28;20293;-75
2022/07/30 09:20:57;;;;;;;1.70;0.53;;;;;;;;;;5035829;28;20232;-76
2022/07/30 09:23:24;;;;;;;1.00;0.50;;;;;;;;;;5036307;28;20558;-75
2022/07/30 09:26:11;;;;;;;3.17;0.77;;;;;;;;;;5080964;28;20177;-75
2022/07/30 09:28:44;;;;;;;2.03;0.60;;;;;;;;;;5090436;28;20193;-76
2022/07/30 09:31:30;;;;;;;1.90;0.50;;;;;;;;;;5090645;28;20246;-76
2022/07/30 09:34:21;;;;;;;1.37;0.50;;;;;;;;;;5073622;28;20197;-77
2022/07/30 09:37:01;;;;;;;2.60;0.60;;;;;;;;;;5090344;28;20189;-76
2022/07/30 09:39:46;;;;;;;1.73;0.57;;;;;;;;;;5075342;28;20196;-76
2022/07/30 09:42:43;;;;;;;2.23;0.80;;;;;;;;;;5090900;28;20246;-76
2022/07/30 09:45:11;;;;;;;0.70;0.60;;;;;;;;;;5072749;28;20189;-76
2022/07/30 09:47:48;;;;;;;2.30;0.70;;;;;;;;;;5071931;28;20275;-77
2022/07/30 09:50:22;;;;;;;1.63;0.67;;;;;;;;;;5056524;28;20201;-76
2022/07/30 09:53:07;;;;;;;1.30;0.57;;;;;;;;;;5071687;28;20681;-76
2022/07/30 09:55:39;;;;;;;0.70;0.50;;;;;;;;;;5071439;28;20198;-77
2022/07/30 09:58:09;;;;;;;1.50;0.50;;;;;;;;;;5055906;28;20622;-76
2022/07/30 10:00:45;;;;;;;1.47;0.57;;;;;;;;;;5056470;28;20209;-76
2022/07/30 10:03:42;;;;;;;1.20;0.70;;;;;;;;;;5075992;28;20545;-77
2022/07/30 10:06:47;;;;;;;1.40;0.60;;;;;;;;;;5027393;28;20223;-76
2022/07/30 10:09:43;;;;;;;2.33;0.60;;;;;;;;;;5069706;28;20178;-76
2022/07/30 10:12:13;;;;;;;1.40;0.53;;;;;;;;;;5056565;28;20216;-77
2022/07/30 10:14:46;;;;;;;0.50;0.50;;;;;;;;;;5059882;28;20556;-77
2022/07/30 10:17:16;;;;;;;2.07;0.53;;;;;;;;;;5075627;28;20197;-77
2022/07/30 10:20:32;;;;;;;0.53;0.50;;;;;;;;;;5048917;28;20257;-77
2022/07/30 10:23:05;;;;;;;1.00;0.60;;;;;;;;;;5093982;28;20661;-77
2022/07/30 10:25:35;;;;;;;1.53;0.60;;;;;;;;;;5088318;28;20206;-77
2022/07/30 10:28:14;;;;;;;1.60;0.60;;;;;;;;;;5057841;28;20277;-77
2022/07/30 10:30:42;;;;;;;1.23;0.50;;;;;;;;;;5073541;28;20186;-77
2022/07/30 10:33:11;;;;;;;2.20;0.63;;;;;;;;;;5073627;28;20194;-77
2022/07/30 10:35:58;;;;;;;1.70;0.80;;;;;;;;;;5073285;28;20209;-77
2022/07/30 10:38:29;;;;;;;9.37;3.00;;;;;;;;;;5073254;28;20277;-77
2022/07/30 10:41:01;;;;;;;1.57;0.60;;;;;;;;;;5073343;28;20202;-77
2022/07/30 10:43:34;;;;;;;3.00;0.70;;;;;;;;;;5073451;28;20204;-78
2022/07/30 10:46:05;;;;;;;2.67;0.53;;;;;;;;;;5073346;28;20292;-77
2022/07/30 10:48:49;;;;;;;0.80;0.50;;;;;;;;;;5043676;28;20198;-76
2022/07/30 10:51:16;;;;;;;3.20;0.67;;;;;;;;;;5073022;28;20680;-77
2022/07/30 10:53:51;;;;;;;1.63;0.80;;;;;;;;;;5055211;28;20193;-77
2022/07/30 10:56:18;;;;;;;1.73;0.57;;;;;;;;;;5045090;28;20303;-77
2022/07/30 10:59:02;;;;;;;2.10;0.70;;;;;;;;;;5032167;28;20191;-76
2022/07/30 11:01:45;;;;;;;1.13;0.50;;;;;;;;;;5032008;28;20238;-77
2022/07/30 11:04:24;;;;;;;1.17;0.50;;;;;;;;;;5033072;28;20214;-77
2022/07/30 11:07:12;;;;;;;5.23;0.90;;;;;;;;;;5031892;28;20191;-78
2022/07/30 11:09:43;;;;;;;1.53;0.70;;;;;;;;;;5031955;28;20598;-78
2022/07/30 11:12:46;;;;;;;1.83;0.80;;;;;;;;;;5032060;28;20187;-77
2022/07/30 11:15:49;;;;;;;1.27;0.67;;;;;;;;;;5033086;28;20202;-77
2022/07/30 11:18:16;;;;;;;2.77;0.70;;;;;;;;;;5033149;28;20187;-77
2022/07/30 11:20:43;;;;;;;1.40;0.80;;;;;;;;;;5032794;28;20199;-77
2022/07/30 11:23:17;;;;;;;4.20;1.70;;;;;;;;;;5031487;28;20282;-77
2022/07/30 11:26:02;;;;;;;1.10;0.60;;;;;;;;;;5040321;28;20261;-78
2022/07/30 11:28:36;;;;;;;2.40;0.60;;;;;;;;;;5051413;28;20187;-77
2022/07/30 11:31:03;;;;;;;2.07;0.60;;;;;;;;;;5051388;28;20213;-77
2022/07/30 11:33:36;;;;;;;2.27;0.70;;;;;;;;;;5035463;28;20238;-77
2022/07/30 11:36:10;;;;;;;1.30;0.60;;;;;;;;;;5052350;28;20230;-77
2022/07/30 11:38:56;;;;;;;1.13;0.57;;;;;;;;;;5034346;28;20613;-76
2022/07/30 11:41:32;;;;;;;1.73;0.70;;;;;;;;;;5051342;28;20685;-77
2022/07/30 11:44:18;;;;;;;1.20;0.80;;;;;;;;;;5052533;28;20214;-76
2022/07/30 11:46:48;;;;;;;1.50;0.60;;;;;;;;;;5052451;28;20179;-77
2022/07/30 11:49:15;;;;;;;1.63;0.60;;;;;;;;;;5050794;28;20229;-77
2022/07/30 11:51:43;;;;;;;2.03;0.70;;;;;;;;;;5034431;28;20271;-77
2022/07/30 11:54:11;;;;;;;0.90;0.60;;;;;;;;;;5050909;28;20692;-77
2022/07/30 11:56:51;;;;;;;2.97;0.70;;;;;;;;;;5070563;28;20293;-77
2022/07/30 11:59:18;;;;;;;0.90;0.60;;;;;;;;;;5092403;28;20193;-77
2022/07/30 12:01:48;;;;;;;1.00;0.60;;;;;;;;;;5092118;28;20291;-76
2022/07/30 12:04:16;;;;;;;1.17;0.70;;;;;;;;;;5074345;28;20193;-77
2022/07/30 12:06:43;;;;;;;2.77;0.70;;;;;;;;;;5092017;28;20587;-77
2022/07/30 12:09:10;;;;;;;0.83;0.57;;;;;;;;;;5073834;28;20699;-77
2022/07/30 12:11:37;;;;;;;1.67;0.70;;;;;;;;;;5074102;28;20571;-77
2022/07/30 12:14:04;;;;;;;1.70;0.70;;;;;;;;;;5074249;28;20198;-76
2022/07/30 12:16:31;;;;;;;2.43;0.93;;;;;;;;;;5074078;28;20678;-77
2022/07/30 12:19:02;;;;;;;3.20;0.83;;;;;;;;;;5073923;28;20589;-77
2022/07/30 12:21:29;;;;;;;1.77;0.70;;;;;;;;;;5057325;28;20738;-76
2022/07/30 12:23:57;;;;;;;1.23;0.60;;;;;;;;;;5073677;28;20243;-77
2022/07/30 12:26:41;;;;;;;0.67;0.50;;;;;;;;;;5076124;28;20213;-77
2022/07/30 12:29:14;;;;;;;1.83;0.73;;;;;;;;;;5091631;28;20239;-78
2022/07/30 12:31:44;;;;;;;2.07;0.70;;;;;;;;;;5074751;28;20181;-77
2022/07/30 12:34:20;;;;;;;2.53;0.80;;;;;;;;;;5091492;28;20242;-77
2022/07/30 12:37:08;;;;;;;2.90;0.80;;;;;;;;;;5090471;28;20173;-77
2022/07/30 12:39:35;;;;;;;14.80;1.63;;;;;;;;;;5091044;28;20185;-78
2022/07/30 12:42:02;;;;;;;2.30;0.97;;;;;;;;;;5091613;28;20217;-77
2022/07/30 12:44:33;;;;;;;2.63;0.80;;;;;;;;;;5073376;28;20208;-77
2022/07/30 12:47:00;;;;;;;1.93;0.60;;;;;;;;;;5073733;28;20617;-77
2022/07/30 12:49:28;;;;;;;1.40;0.60;;;;;;;;;;5057106;28;20194;-77
2022/07/30 12:52:21;;;;;;;2.73;0.97;;;;;;;;;;5075854;28;20652;-77
2022/07/30 12:55:01;;;;;;;4.67;1.17;;;;;;;;;;5073998;28;20679;-77
2022/07/30 12:57:47;;;;;;;1.87;0.70;;;;;;;;;;5090871;28;20226;-77
2022/07/30 13:00:16;;;;;;;3.17;0.70;;;;;;;;;;5073240;28;20662;-77
2022/07/30 13:02:43;;;;;;;1.20;0.60;;;;;;;;;;5090547;28;20221;-76
2022/07/30 13:05:11;;;;;;;1.67;0.87;;;;;;;;;;5091129;28;20197;-77
2022/07/30 13:07:54;;;;;;;1.43;0.80;;;;;;;;;;5090680;28;20626;-77
2022/07/30 13:10:21;;;;;;;4.17;1.10;;;;;;;;;;5090958;28;20184;-77
2022/07/30 13:12:51;;;;;;;5.43;1.53;;;;;;;;;;5073382;28;20285;-77
2022/07/30 13:15:21;;;;;;;2.57;1.07;;;;;;;;;;5090528;28;20743;-77
2022/07/30 13:17:48;;;;;;;1.13;0.70;;;;;;;;;;5072821;28;20224;-77
2022/07/30 13:20:15;;;;;;;1.20;0.83;;;;;;;;;;5072640;28;20212;-77
2022/07/30 13:23:00;;;;;;;3.43;1.07;;;;;;;;;;5090843;28;20198;-77
2022/07/30 13:25:28;;;;;;;3.27;1.00;;;;;;;;;;5050767;28;20194;-77
2022/07/30 13:28:05;;;;;;;3.17;1.13;;;;;;;;;;5070293;28;20194;-77
2022/07/30 13:30:32;;;;;;;1.60;0.80;;;;;;;;;;5052431;28;20182;-77
2022/07/30 13:32:59;;;;;;;4.10;1.00;;;;;;;;;;5070172;28;20197;-76
2022/07/30 13:35:26;;;;;;;1.90;0.70;;;;;;;;;;5070404;28;20303;-76
2022/07/30 13:37:53;;;;;;;1.83;0.70;;;;;;;;;;5052836;28;20240;-77
2022/07/30 13:40:20;;;;;;;2.10;0.67;;;;;;;;;;5070117;28;20187;-76
2022/07/30 13:42:47;;;;;;;2.03;0.70;;;;;;;;;;5070222;28;20216;-77
2022/07/30 13:45:14;;;;;;;0.80;0.63;;;;;;;;;;5035333;28;20299;-77
2022/07/30 13:47:43;;;;;;;2.40;0.57;;;;;;;;;;5070023;28;20190;-76
2022/07/30 13:50:10;;;;;;;3.23;0.80;;;;;;;;;;5070316;28;20549;-77
2022/07/30 13:52:37;;;;;;;1.30;0.73;;;;;;;;;;5070054;28;20186;-77
2022/07/30 13:55:04;;;;;;;2.83;0.80;;;;;;;;;;5052084;28;20198;-77
2022/07/30 13:57:31;;;;;;;3.33;0.90;;;;;;;;;;5069750;28;20218;-78
2022/07/30 13:59:59;;;;;;;0.80;0.63;;;;;;;;;;5069984;28;20722;-77
2022/07/30 14:02:30;;;;;;;1.70;0.83;;;;;;;;;;5070218;28;20225;-77
2022/07/30 14:04:57;;;;;;;1.33;0.60;;;;;;;;;;5052152;28;20186;-77
2022/07/30 14:07:25;;;;;;;1.97;0.60;;;;;;;;;;5069868;28;20762;-77
2022/07/30 14:09:52;;;;;;;1.57;0.70;;;;;;;;;;5051958;28;20290;-76
2022/07/30 14:12:20;;;;;;;1.43;0.70;;;;;;;;;;5070008;28;20190;-76
2022/07/30 14:14:47;;;;;;;1.53;0.63;;;;;;;;;;5069807;28;20221;-76
2022/07/30 14:17:14;;;;;;;2.23;0.80;;;;;;;;;;5070013;28;20674;-77
2022/07/30 14:19:40;;;;;;;2.30;0.80;;;;;;;;;;5052185;28;20191;-77
2022/07/30 14:22:07;;;;;;;2.97;1.17;;;;;;;;;;5035478;28;20427;-77
2022/07/30 14:24:52;;;;;;;3.33;0.80;;;;;;;;;;5069606;28;20220;-77
2022/07/30 14:27:20;;;;;;;3.20;0.80;;;;;;;;;;5089999;28;20595;-77
2022/07/30 14:29:46;;;;;;;1.33;0.87;;;;;;;;;;5089885;28;20272;-78
2022/07/30 14:32:13;;;;;;;2.27;0.90;;;;;;;;;;5072191;28;20194;-77
2022/07/30 14:34:40;;;;;;;1.43;0.90;;;;;;;;;;5089980;28;20607;-78
2022/07/30 14:37:15;;;;;;;3.30;1.20;;;;;;;;;;5089678;28;20672;-77
2022/07/30 14:39:42;;;;;;;3.07;0.80;;;;;;;;;;5071775;28;20233;-78
2022/07/30 14:42:08;;;;;;;2.87;0.57;;;;;;;;;;5071867;28;20208;-78
2022/07/30 14:44:35;;;;;;;3.03;0.87;;;;;;;;;;5089633;28;20185;-77
2022/07/30 14:47:02;;;;;;;1.93;0.80;;;;;;;;;;5090211;28;20195;-76
2022/07/30 14:49:48;;;;;;;2.03;0.80;;;;;;;;;;5074459;28;20166;-77
2022/07/30 14:52:14;;;;;;;1.73;0.70;;;;;;;;;;5071587;28;20189;-78
2022/07/30 14:54:59;;;;;;;2.70;0.70;;;;;;;;;;5071371;28;20170;-77
2022/07/30 14:57:29;;;;;;;1.40;0.70;;;;;;;;;;5051409;28;20230;-78
2022/07/30 15:00:00;;;;;;;3.23;0.80;;;;;;;;;;5049314;28;20226;-78
2022/07/30 15:02:26;;;;;;;3.40;0.63;;;;;;;;;;5052843;28;20617;-77
2022/07/30 15:04:54;;;;;;;2.73;0.80;;;;;;;;;;5053231;28;20179;-78
2022/07/30 15:07:22;;;;;;;1.43;0.77;;;;;;;;;;5051818;28;20183;-78
2022/07/30 15:09:48;;;;;;;1.77;0.70;;;;;;;;;;5053147;28;20609;-78
2022/07/30 15:12:15;;;;;;;1.17;0.60;;;;;;;;;;5052896;28;20274;-78
2022/07/30 15:14:53;;;;;;;1.70;0.90;;;;;;;;;;5052913;28;20190;-78
2022/07/30 15:17:19;;;;;;;1.70;0.67;;;;;;;;;;5051712;28;20273;-78
2022/07/30 15:19:46;;;;;;;1.13;0.80;;;;;;;;;;5035145;28;20204;-77